sensor_id;sensor_type;location;lat;lon;timestamp;P1;P2;P0
12246;PMS7003;6186;52.022;4.692;2023-05-29T00:01:51;2.00;2.00;0.00
12246;PMS7003;6186;52.022;4.692;2023-05-29T00:04:16;3.75;2.00;0.00
12246;PMS7003;6186;52.022;4.692;2023-05-29T00:06:41;1.25;1.25;0.00
12246;PMS7003;6186;52.022;4.692;2023-05-29T00:09:06;2.75;2.75;0.00
12246;PMS7003;6186;52.022;4.692;2023-05-29T00:11:32;2.50;2.50;1.00
12246;PMS7003;6186;52.022;4.692;2023-05-29T00:13:57;3.00;3.00;1.00
12246;PMS7003;6186;52.022;4.692;2023-05-29T00:16:22;2.00;2.00;1.00
12246;PMS7003;6186;52.022;4.692;2023-05-29T00:18:48;2.60;2.20;0.00
12246;PMS7003;6186;52.022;4.692;2023-05-29T00:21:14;2.25;2.00;1.00
12246;PMS7003;6186;52.022;4.692;2023-05-29T00:23:39;2.25;2.25;0.00
12246;PMS7003;6186;52.022;4.692;2023-05-29T00:26:04;3.00;3.00;1.00
12246;PMS7003;6186;52.022;4.692;2023-05-29T00:28:30;2.00;2.00;0.00
12246;PMS7003;6186;52.022;4.692;2023-05-29T00:30:55;3.00;2.75;0.00
12246;PMS7003;6186;52.022;4.692;2023-05-29T00:33:20;3.00;2.25;0.00
12246;PMS7003;6186;52.022;4.692;2023-05-29T00:35:45;3.00;2.00;0.00
12246;PMS7003;6186;52.022;4.692;2023-05-29T00:38:11;1.75;1.75;0.25
12246;PMS7003;6186;52.022;4.692;2023-05-29T00:40:36;2.00;2.00;0.00
12246;PMS7003;6186;52.022;4.692;2023-05-29T00:43:01;1.00;1.00;0.00
12246;PMS7003;6186;52.022;4.692;2023-05-29T00:45:26;2.00;2.00;0.00
12246;PMS7003;6186;52.022;4.692;2023-05-29T00:47:51;4.00;3.00;1.00
12246;PMS7003;6186;52.022;4.692;2023-05-29T00:50:17;5.00;2.00;1.00
12246;PMS7003;6186;52.022;4.692;2023-05-29T00:52:43;2.25;2.25;1.00
12246;PMS7003;6186;52.022;4.692;2023-05-29T00:55:10;2.00;2.00;0.00
12246;PMS7003;6186;52.022;4.692;2023-05-29T00:57:35;2.00;2.00;1.00
12246;PMS7003;6186;52.022;4.692;2023-05-29T01:00:02;1.80;1.80;0.00
12246;PMS7003;6186;52.022;4.692;2023-05-29T01:02:29;2.00;2.00;0.00
12246;PMS7003;6186;52.022;4.692;2023-05-29T01:04:54;2.50;2.00;0.00
12246;PMS7003;6186;52.022;4.692;2023-05-29T01:07:21;1.20;1.20;0.00
12246;PMS7003;6186;52.022;4.692;2023-05-29T01:09:46;2.00;2.00;0.00
12246;PMS7003;6186;52.022;4.692;2023-05-29T01:18:19;3.00;2.00;0.20
12246;PMS7003;6186;52.022;4.692;2023-05-29T01:23:40;2.80;2.80;0.20
12246;PMS7003;6186;52.022;4.692;2023-05-29T01:29:29;1.60;1.60;0.00
12246;PMS7003;6186;52.022;4.692;2023-05-29T01:31:57;3.20;1.80;0.00
12246;PMS7003;6186;52.022;4.692;2023-05-29T01:34:23;1.00;1.00;0.00
12246;PMS7003;6186;52.022;4.692;2023-05-29T01:36:48;2.50;2.00;0.00
12246;PMS7003;6186;52.022;4.692;2023-05-29T01:39:14;1.50;1.50;0.00
12246;PMS7003;6186;52.022;4.692;2023-05-29T01:41:40;2.00;1.80;0.00
12246;PMS7003;6186;52.022;4.692;2023-05-29T01:44:07;2.20;2.00;0.00
12246;PMS7003;6186;52.022;4.692;2023-05-29T01:46:34;2.00;2.00;0.00
12246;PMS7003;6186;52.022;4.692;2023-05-29T01:49:01;1.80;1.80;0.00
12246;PMS7003;6186;52.022;4.692;2023-05-29T01:51:26;2.00;2.00;0.00
12246;PMS7003;6186;52.022;4.692;2023-05-29T01:53:51;3.00;2.00;0.00
12246;PMS7003;6186;52.022;4.692;2023-05-29T01:56:17;2.00;2.00;0.00
12246;PMS7003;6186;52.022;4.692;2023-05-29T01:58:43;3.00;2.60;0.60
12246;PMS7003;6186;52.022;4.692;2023-05-29T02:01:09;2.00;2.00;0.00
12246;PMS7003;6186;52.022;4.692;2023-05-29T02:03:35;2.60;2.00;1.00
12246;PMS7003;6186;52.022;4.692;2023-05-29T02:06:00;1.25;1.25;0.00
12246;PMS7003;6186;52.022;4.692;2023-05-29T02:08:25;1.50;1.50;0.00
12246;PMS7003;6186;52.022;4.692;2023-05-29T02:10:51;2.00;2.00;0.00
12246;PMS7003;6186;52.022;4.692;2023-05-29T02:13:16;1.75;1.75;0.00
12246;PMS7003;6186;52.022;4.692;2023-05-29T02:15:42;2.50;2.00;0.00
12246;PMS7003;6186;52.022;4.692;2023-05-29T02:18:09;2.00;2.00;0.00
12246;PMS7003;6186;52.022;4.692;2023-05-29T02:20:38;2.00;2.00;0.00
12246;PMS7003;6186;52.022;4.692;2023-05-29T02:23:03;1.25;1.00;0.00
12246;PMS7003;6186;52.022;4.692;2023-05-29T02:25:29;2.00;2.00;0.00
12246;PMS7003;6186;52.022;4.692;2023-05-29T02:27:54;2.75;2.00;0.00
12246;PMS7003;6186;52.022;4.692;2023-05-29T02:30:19;2.00;2.00;0.00
12246;PMS7003;6186;52.022;4.692;2023-05-29T02:32:44;2.00;2.00;0.00
12246;PMS7003;6186;52.022;4.692;2023-05-29T02:35:09;1.50;1.50;0.00
12246;PMS7003;6186;52.022;4.692;2023-05-29T02:37:35;2.50;2.00;0.00
12246;PMS7003;6186;52.022;4.692;2023-05-29T02:40:00;2.00;2.00;0.00
12246;PMS7003;6186;52.022;4.692;2023-05-29T02:42:25;1.50;1.50;0.00
12246;PMS7003;6186;52.022;4.692;2023-05-29T02:44:50;3.00;1.75;0.00
12246;PMS7003;6186;52.022;4.692;2023-05-29T02:47:16;2.00;2.00;0.00
12246;PMS7003;6186;52.022;4.692;2023-05-29T02:49:41;2.50;2.50;0.00
12246;PMS7003;6186;52.022;4.692;2023-05-29T02:52:06;1.75;1.75;0.00
12246;PMS7003;6186;52.022;4.692;2023-05-29T02:54:32;2.00;1.40;0.00
12246;PMS7003;6186;52.022;4.692;2023-05-29T02:56:57;2.25;2.00;0.00
12246;PMS7003;6186;52.022;4.692;2023-05-29T02:59:23;2.00;2.00;0.00
12246;PMS7003;6186;52.022;4.692;2023-05-29T03:01:48;1.00;1.00;0.00
12246;PMS7003;6186;52.022;4.692;2023-05-29T03:04:13;2.00;2.00;0.00
12246;PMS7003;6186;52.022;4.692;2023-05-29T03:06:38;3.00;1.75;0.00
12246;PMS7003;6186;52.022;4.692;2023-05-29T03:09:04;2.00;2.00;0.00
12246;PMS7003;6186;52.022;4.692;2023-05-29T03:11:29;1.50;1.00;0.00
12246;PMS7003;6186;52.022;4.692;2023-05-29T03:13:54;2.00;2.00;0.00
12246;PMS7003;6186;52.022;4.692;2023-05-29T03:16:20;3.50;2.00;0.00
12246;PMS7003;6186;52.022;4.692;2023-05-29T03:18:45;2.00;1.00;0.00
12246;PMS7003;6186;52.022;4.692;2023-05-29T03:21:10;2.25;1.75;0.00
12246;PMS7003;6186;52.022;4.692;2023-05-29T03:23:35;1.00;1.00;0.00
12246;PMS7003;6186;52.022;4.692;2023-05-29T03:26:01;1.00;1.00;0.00
12246;PMS7003;6186;52.022;4.692;2023-05-29T03:28:27;2.00;2.00;0.00
12246;PMS7003;6186;52.022;4.692;2023-05-29T03:30:52;2.00;2.00;0.00
12246;PMS7003;6186;52.022;4.692;2023-05-29T03:33:17;1.75;1.75;0.00
12246;PMS7003;6186;52.022;4.692;2023-05-29T03:35:43;1.25;1.25;0.00
12246;PMS7003;6186;52.022;4.692;2023-05-29T03:38:08;1.25;1.25;0.00
12246;PMS7003;6186;52.022;4.692;2023-05-29T03:40:34;1.00;1.00;0.00
12246;PMS7003;6186;52.022;4.692;2023-05-29T03:42:59;2.00;2.00;0.00
12246;PMS7003;6186;52.022;4.692;2023-05-29T03:45:24;1.00;1.00;0.00
12246;PMS7003;6186;52.022;4.692;2023-05-29T03:47:49;2.00;2.00;0.00
12246;PMS7003;6186;52.022;4.692;2023-05-29T03:50:14;1.50;1.50;0.00
12246;PMS7003;6186;52.022;4.692;2023-05-29T03:52:40;3.25;2.00;0.00
12246;PMS7003;6186;52.022;4.692;2023-05-29T03:55:07;2.00;2.00;0.20
12246;PMS7003;6186;52.022;4.692;2023-05-29T03:57:35;2.80;2.00;0.00
12246;PMS7003;6186;52.022;4.692;2023-05-29T04:00:00;2.00;2.00;0.00
12246;PMS7003;6186;52.022;4.692;2023-05-29T04:02:25;2.00;2.00;0.00
12246;PMS7003;6186;52.022;4.692;2023-05-29T04:04:50;2.00;2.00;0.00
12246;PMS7003;6186;52.022;4.692;2023-05-29T04:07:16;2.00;2.00;0.00
12246;PMS7003;6186;52.022;4.692;2023-05-29T04:09:41;2.00;2.00;0.00
12246;PMS7003;6186;52.022;4.692;2023-05-29T04:12:06;1.00;1.00;0.00
12246;PMS7003;6186;52.022;4.692;2023-05-29T04:14:32;2.00;1.80;0.00
12246;PMS7003;6186;52.022;4.692;2023-05-29T04:16:57;2.00;2.00;0.25
12246;PMS7003;6186;52.022;4.692;2023-05-29T04:19:23;2.00;2.00;0.00
12246;PMS7003;6186;52.022;4.692;2023-05-29T04:21:48;2.00;2.00;0.25
12246;PMS7003;6186;52.022;4.692;2023-05-29T04:24:14;2.00;2.00;0.00
12246;PMS7003;6186;52.022;4.692;2023-05-29T04:26:39;2.00;2.00;0.00
12246;PMS7003;6186;52.022;4.692;2023-05-29T04:29:04;1.50;1.00;0.00
12246;PMS7003;6186;52.022;4.692;2023-05-29T04:31:29;2.00;2.00;0.00
12246;PMS7003;6186;52.022;4.692;2023-05-29T04:33:55;2.00;2.00;0.00
12246;PMS7003;6186;52.022;4.692;2023-05-29T04:36:23;2.00;1.75;0.00
12246;PMS7003;6186;52.022;4.692;2023-05-29T04:38:49;2.00;1.00;0.00
12246;PMS7003;6186;52.022;4.692;2023-05-29T04:41:14;1.00;1.00;0.00
12246;PMS7003;6186;52.022;4.692;2023-05-29T04:43:39;2.00;2.00;0.00
12246;PMS7003;6186;52.022;4.692;2023-05-29T04:46:05;2.00;2.00;0.25
12246;PMS7003;6186;52.022;4.692;2023-05-29T04:48:30;2.00;2.00;0.00
12246;PMS7003;6186;52.022;4.692;2023-05-29T04:50:55;2.00;2.00;0.00
12246;PMS7003;6186;52.022;4.692;2023-05-29T04:53:20;2.00;2.00;0.00
12246;PMS7003;6186;52.022;4.692;2023-05-29T04:55:45;1.75;1.75;0.00
12246;PMS7003;6186;52.022;4.692;2023-05-29T04:58:11;2.00;2.00;0.75
12246;PMS7003;6186;52.022;4.692;2023-05-29T05:00:36;3.00;3.00;0.00
12246;PMS7003;6186;52.022;4.692;2023-05-29T05:03:01;2.75;2.00;0.50
12246;PMS7003;6186;52.022;4.692;2023-05-29T05:05:26;1.00;1.00;0.00
12246;PMS7003;6186;52.022;4.692;2023-05-29T05:07:51;1.25;1.25;0.00
12246;PMS7003;6186;52.022;4.692;2023-05-29T05:10:17;2.00;2.00;0.00
12246;PMS7003;6186;52.022;4.692;2023-05-29T05:12:42;2.00;2.00;0.00
12246;PMS7003;6186;52.022;4.692;2023-05-29T05:15:07;2.50;2.50;0.00
12246;PMS7003;6186;52.022;4.692;2023-05-29T05:17:33;2.60;2.40;0.00
12246;PMS7003;6186;52.022;4.692;2023-05-29T05:19:58;3.00;2.00;0.00
12246;PMS7003;6186;52.022;4.692;2023-05-29T05:22:24;2.00;2.00;0.00
12246;PMS7003;6186;52.022;4.692;2023-05-29T05:24:49;3.00;3.00;0.00
12246;PMS7003;6186;52.022;4.692;2023-05-29T05:27:14;2.00;2.00;0.00
12246;PMS7003;6186;52.022;4.692;2023-05-29T05:29:39;2.00;2.00;0.75
12246;PMS7003;6186;52.022;4.692;2023-05-29T05:32:05;2.00;2.00;0.00
12246;PMS7003;6186;52.022;4.692;2023-05-29T05:34:30;3.00;2.00;0.00
12246;PMS7003;6186;52.022;4.692;2023-05-29T05:36:55;2.00;2.00;0.00
12246;PMS7003;6186;52.022;4.692;2023-05-29T05:39:21;2.00;1.50;0.00
12246;PMS7003;6186;52.022;4.692;2023-05-29T05:41:46;2.00;2.00;0.50
12246;PMS7003;6186;52.022;4.692;2023-05-29T05:44:11;2.00;2.00;0.00
12246;PMS7003;6186;52.022;4.692;2023-05-29T05:46:36;2.00;2.00;0.00
12246;PMS7003;6186;52.022;4.692;2023-05-29T05:49:02;2.00;2.00;0.00
12246;PMS7003;6186;52.022;4.692;2023-05-29T05:51:27;3.00;2.00;0.00
12246;PMS7003;6186;52.022;4.692;2023-05-29T05:53:52;2.00;2.00;0.00
12246;PMS7003;6186;52.022;4.692;2023-05-29T05:56:18;3.00;2.40;1.00
12246;PMS7003;6186;52.022;4.692;2023-05-29T05:58:43;2.25;2.25;0.00
12246;PMS7003;6186;52.022;4.692;2023-05-29T06:01:09;2.00;1.75;0.00
12246;PMS7003;6186;52.022;4.692;2023-05-29T06:03:34;2.00;2.00;0.00
12246;PMS7003;6186;52.022;4.692;2023-05-29T06:06:00;2.75;2.00;0.00
12246;PMS7003;6186;52.022;4.692;2023-05-29T06:08:25;2.00;2.00;0.00
12246;PMS7003;6186;52.022;4.692;2023-05-29T06:10:50;2.00;2.00;0.00
12246;PMS7003;6186;52.022;4.692;2023-05-29T06:13:16;2.25;2.00;0.00
12246;PMS7003;6186;52.022;4.692;2023-05-29T06:15:41;1.00;1.00;0.00
12246;PMS7003;6186;52.022;4.692;2023-05-29T06:18:06;3.00;3.00;1.00
12246;PMS7003;6186;52.022;4.692;2023-05-29T06:20:31;3.00;2.00;0.00
12246;PMS7003;6186;52.022;4.692;2023-05-29T06:22:57;3.00;3.00;0.75
12246;PMS7003;6186;52.022;4.692;2023-05-29T06:25:22;3.00;3.00;1.00
12246;PMS7003;6186;52.022;4.692;2023-05-29T06:27:47;2.50;2.50;0.25
12246;PMS7003;6186;52.022;4.692;2023-05-29T06:30:12;2.00;2.00;0.00
12246;PMS7003;6186;52.022;4.692;2023-05-29T06:32:38;2.00;2.00;0.00
12246;PMS7003;6186;52.022;4.692;2023-05-29T06:35:03;2.00;2.00;0.25
12246;PMS7003;6186;52.022;4.692;2023-05-29T06:37:29;3.00;3.00;0.60
12246;PMS7003;6186;52.022;4.692;2023-05-29T06:39:54;4.00;2.50;0.50
12246;PMS7003;6186;52.022;4.692;2023-05-29T06:42:19;2.00;2.00;0.75
12246;PMS7003;6186;52.022;4.692;2023-05-29T06:44:45;2.00;2.00;0.00
12246;PMS7003;6186;52.022;4.692;2023-05-29T06:47:10;3.00;3.00;1.00
12246;PMS7003;6186;52.022;4.692;2023-05-29T06:49:35;2.00;2.00;0.00
12246;PMS7003;6186;52.022;4.692;2023-05-29T06:52:00;3.00;3.00;1.00
12246;PMS7003;6186;52.022;4.692;2023-05-29T06:54:26;3.50;2.75;1.00
12246;PMS7003;6186;52.022;4.692;2023-05-29T06:56:51;2.25;2.00;0.00
12246;PMS7003;6186;52.022;4.692;2023-05-29T06:59:16;4.00;3.00;1.00
12246;PMS7003;6186;52.022;4.692;2023-05-29T07:01:41;2.00;2.00;1.00
12246;PMS7003;6186;52.022;4.692;2023-05-29T07:04:06;2.50;2.00;0.00
12246;PMS7003;6186;52.022;4.692;2023-05-29T07:06:32;2.50;2.50;0.00
12246;PMS7003;6186;52.022;4.692;2023-05-29T07:08:57;3.00;3.00;1.00
12246;PMS7003;6186;52.022;4.692;2023-05-29T07:11:22;3.25;3.25;1.00
12246;PMS7003;6186;52.022;4.692;2023-05-29T07:13:48;5.00;3.00;1.00
12246;PMS7003;6186;52.022;4.692;2023-05-29T07:16:13;3.00;3.00;1.00
12246;PMS7003;6186;52.022;4.692;2023-05-29T07:18:38;3.00;3.00;1.00
12246;PMS7003;6186;52.022;4.692;2023-05-29T07:21:03;2.00;2.00;0.00
12246;PMS7003;6186;52.022;4.692;2023-05-29T07:23:28;2.75;2.00;1.00
12246;PMS7003;6186;52.022;4.692;2023-05-29T07:25:54;2.50;2.50;1.00
12246;PMS7003;6186;52.022;4.692;2023-05-29T07:28:19;2.00;2.00;1.00
12246;PMS7003;6186;52.022;4.692;2023-05-29T07:30:44;3.00;2.50;1.00
12246;PMS7003;6186;52.022;4.692;2023-05-29T07:33:09;1.25;1.25;0.00
12246;PMS7003;6186;52.022;4.692;2023-05-29T07:35:35;2.00;2.00;0.00
12246;PMS7003;6186;52.022;4.692;2023-05-29T07:38:00;2.75;2.75;0.00
12246;PMS7003;6186;52.022;4.692;2023-05-29T07:40:25;3.50;3.00;1.00
12246;PMS7003;6186;52.022;4.692;2023-05-29T07:42:51;3.75;3.00;0.00
12246;PMS7003;6186;52.022;4.692;2023-05-29T07:45:16;2.00;2.00;1.00
12246;PMS7003;6186;52.022;4.692;2023-05-29T07:47:41;2.75;2.75;1.00
12246;PMS7003;6186;52.022;4.692;2023-05-29T07:50:07;3.00;3.00;1.00
12246;PMS7003;6186;52.022;4.692;2023-05-29T07:52:33;3.00;3.00;1.00
12246;PMS7003;6186;52.022;4.692;2023-05-29T07:54:58;3.00;3.00;1.00
12246;PMS7003;6186;52.022;4.692;2023-05-29T07:57:23;3.00;3.00;1.00
12246;PMS7003;6186;52.022;4.692;2023-05-29T07:59:49;3.00;3.00;0.75
12246;PMS7003;6186;52.022;4.692;2023-05-29T08:02:14;3.25;2.00;0.25
12246;PMS7003;6186;52.022;4.692;2023-05-29T08:04:39;3.00;3.00;1.00
12246;PMS7003;6186;52.022;4.692;2023-05-29T08:07:04;4.00;3.00;1.00
12246;PMS7003;6186;52.022;4.692;2023-05-29T08:09:29;4.00;3.00;1.00
12246;PMS7003;6186;52.022;4.692;2023-05-29T08:11:55;4.25;3.00;1.00
12246;PMS7003;6186;52.022;4.692;2023-05-29T08:14:20;2.50;2.25;1.00
12246;PMS7003;6186;52.022;4.692;2023-05-29T08:16:45;3.00;3.00;1.00
12246;PMS7003;6186;52.022;4.692;2023-05-29T08:19:10;3.50;3.00;1.00
12246;PMS7003;6186;52.022;4.692;2023-05-29T08:21:36;3.25;3.25;2.00
12246;PMS7003;6186;52.022;4.692;2023-05-29T08:24:01;3.75;3.25;1.00
12246;PMS7003;6186;52.022;4.692;2023-05-29T08:26:27;2.00;2.00;0.60
12246;PMS7003;6186;52.022;4.692;2023-05-29T08:28:52;3.00;3.00;1.00
12246;PMS7003;6186;52.022;4.692;2023-05-29T08:31:18;3.75;2.75;1.00
12246;PMS7003;6186;52.022;4.692;2023-05-29T08:33:43;3.25;3.00;1.00
12246;PMS7003;6186;52.022;4.692;2023-05-29T08:36:08;4.00;4.00;1.00
12246;PMS7003;6186;52.022;4.692;2023-05-29T08:38:34;3.75;3.75;1.25
12246;PMS7003;6186;52.022;4.692;2023-05-29T08:40:59;3.50;2.50;1.00
12246;PMS7003;6186;52.022;4.692;2023-05-29T08:43:25;3.50;3.00;1.75
12246;PMS7003;6186;52.022;4.692;2023-05-29T08:45:56;3.00;3.00;1.00
12246;PMS7003;6186;52.022;4.692;2023-05-29T08:48:25;4.00;3.00;1.00
12246;PMS7003;6186;52.022;4.692;2023-05-29T08:50:53;4.00;3.60;1.00
12246;PMS7003;6186;52.022;4.692;2023-05-29T08:53:20;3.00;3.00;1.40
12246;PMS7003;6186;52.022;4.692;2023-05-29T08:55:46;3.00;3.00;1.00
12246;PMS7003;6186;52.022;4.692;2023-05-29T08:58:13;3.00;2.50;1.00
12246;PMS7003;6186;52.022;4.692;2023-05-29T09:00:39;2.40;2.40;1.00
12246;PMS7003;6186;52.022;4.692;2023-05-29T09:03:04;4.00;2.75;1.00
12246;PMS7003;6186;52.022;4.692;2023-05-29T09:05:29;4.25;3.00;1.00
12246;PMS7003;6186;52.022;4.692;2023-05-29T09:07:55;3.00;2.50;1.00
12246;PMS7003;6186;52.022;4.692;2023-05-29T09:10:21;3.00;3.00;1.00
12246;PMS7003;6186;52.022;4.692;2023-05-29T09:12:47;3.50;3.50;1.00
12246;PMS7003;6186;52.022;4.692;2023-05-29T09:15:19;2.75;2.75;1.00
12246;PMS7003;6186;52.022;4.692;2023-05-29T09:17:52;4.00;3.00;1.00
12246;PMS7003;6186;52.022;4.692;2023-05-29T09:20:19;3.40;3.00;0.80
12246;PMS7003;6186;52.022;4.692;2023-05-29T09:22:58;3.00;3.00;1.00
12246;PMS7003;6186;52.022;4.692;2023-05-29T09:25:25;3.60;3.00;1.00
12246;PMS7003;6186;52.022;4.692;2023-05-29T09:28:02;3.00;3.00;1.00
12246;PMS7003;6186;52.022;4.692;2023-05-29T09:30:32;2.20;2.20;0.40
12246;PMS7003;6186;52.022;4.692;2023-05-29T09:32:59;2.80;2.80;1.00
12246;PMS7003;6186;52.022;4.692;2023-05-29T09:35:25;4.25;4.00;1.00
12246;PMS7003;6186;52.022;4.692;2023-05-29T09:37:50;4.00;3.00;1.00
12246;PMS7003;6186;52.022;4.692;2023-05-29T09:40:15;2.75;2.50;0.25
12246;PMS7003;6186;52.022;4.692;2023-05-29T09:42:40;2.50;2.50;1.00
12246;PMS7003;6186;52.022;4.692;2023-05-29T09:45:06;3.50;3.00;1.00
12246;PMS7003;6186;52.022;4.692;2023-05-29T09:47:34;3.00;3.00;1.00
12246;PMS7003;6186;52.022;4.692;2023-05-29T09:50:00;3.80;3.00;1.00
12246;PMS7003;6186;52.022;4.692;2023-05-29T09:52:26;3.80;3.00;1.00
12246;PMS7003;6186;52.022;4.692;2023-05-29T09:54:54;2.80;2.40;1.00
12246;PMS7003;6186;52.022;4.692;2023-05-29T09:57:19;3.25;2.25;1.00
12246;PMS7003;6186;52.022;4.692;2023-05-29T09:59:45;5.00;4.00;1.00
12246;PMS7003;6186;52.022;4.692;2023-05-29T10:02:11;3.60;3.00;1.00
12246;PMS7003;6186;52.022;4.692;2023-05-29T10:04:36;2.25;2.25;0.25
12246;PMS7003;6186;52.022;4.692;2023-05-29T10:07:04;2.75;2.25;0.25
12246;PMS7003;6186;52.022;4.692;2023-05-29T10:09:33;2.60;2.40;0.40
12246;PMS7003;6186;52.022;4.692;2023-05-29T10:12:02;3.40;2.00;0.40
12246;PMS7003;6186;52.022;4.692;2023-05-29T10:14:29;2.40;2.40;1.00
12246;PMS7003;6186;52.022;4.692;2023-05-29T10:16:56;4.00;3.00;1.00
12246;PMS7003;6186;52.022;4.692;2023-05-29T10:19:27;2.60;2.60;0.40
12246;PMS7003;6186;52.022;4.692;2023-05-29T10:21:54;3.00;2.40;1.00
12246;PMS7003;6186;52.022;4.692;2023-05-29T10:24:20;4.00;3.00;1.25
12246;PMS7003;6186;52.022;4.692;2023-05-29T10:26:47;3.00;3.00;1.25
12246;PMS7003;6186;52.022;4.692;2023-05-29T10:29:26;3.40;2.60;1.00
12246;PMS7003;6186;52.022;4.692;2023-05-29T10:37:40;3.00;3.00;1.20
12246;PMS7003;6186;52.022;4.692;2023-05-29T10:40:09;5.00;3.80;1.20
12246;PMS7003;6186;52.022;4.692;2023-05-29T10:45:03;3.20;3.20;0.60
12246;PMS7003;6186;52.022;4.692;2023-05-29T10:47:29;2.80;2.80;0.40
12246;PMS7003;6186;52.022;4.692;2023-05-29T10:49:59;2.25;2.25;0.25
12246;PMS7003;6186;52.022;4.692;2023-05-29T10:52:24;4.20;3.40;1.00
12246;PMS7003;6186;52.022;4.692;2023-05-29T10:54:50;3.00;3.00;1.00
12246;PMS7003;6186;52.022;4.692;2023-05-29T10:57:17;3.80;3.80;1.00
12246;PMS7003;6186;52.022;4.692;2023-05-29T10:59:44;4.00;3.25;1.00
12246;PMS7003;6186;52.022;4.692;2023-05-29T11:02:10;4.60;4.00;2.00
12246;PMS7003;6186;52.022;4.692;2023-05-29T11:04:35;4.50;3.00;1.00
12246;PMS7003;6186;52.022;4.692;2023-05-29T11:07:01;5.50;4.75;1.00
12246;PMS7003;6186;52.022;4.692;2023-05-29T11:09:27;4.00;3.00;1.75
12246;PMS7003;6186;52.022;4.692;2023-05-29T11:12:12;3.00;3.00;1.00
12246;PMS7003;6186;52.022;4.692;2023-05-29T11:14:56;4.20;3.00;1.00
12246;PMS7003;6186;52.022;4.692;2023-05-29T11:17:30;4.00;4.00;1.00
12246;PMS7003;6186;52.022;4.692;2023-05-29T11:19:57;5.00;4.20;2.00
12246;PMS7003;6186;52.022;4.692;2023-05-29T11:22:27;4.60;3.40;1.00
12246;PMS7003;6186;52.022;4.692;2023-05-29T11:25:19;4.00;3.00;1.00
12246;PMS7003;6186;52.022;4.692;2023-05-29T11:27:45;4.00;4.00;1.00
12246;PMS7003;6186;52.022;4.692;2023-05-29T11:30:11;4.00;3.25;1.00
12246;PMS7003;6186;52.022;4.692;2023-05-29T11:32:36;4.00;4.00;2.00
12246;PMS7003;6186;52.022;4.692;2023-05-29T11:35:05;4.00;4.00;1.20
12246;PMS7003;6186;52.022;4.692;2023-05-29T11:37:33;3.40;3.40;1.00
12246;PMS7003;6186;52.022;4.692;2023-05-29T11:39:59;3.80;3.40;1.00
12246;PMS7003;6186;52.022;4.692;2023-05-29T11:42:25;5.00;5.00;2.00
12246;PMS7003;6186;52.022;4.692;2023-05-29T11:44:50;3.00;3.00;1.00
12246;PMS7003;6186;52.022;4.692;2023-05-29T11:47:15;4.50;4.50;2.00
12246;PMS7003;6186;52.022;4.692;2023-05-29T11:49:40;3.50;3.50;2.00
12246;PMS7003;6186;52.022;4.692;2023-05-29T11:52:10;4.00;4.00;1.50
12246;PMS7003;6186;52.022;4.692;2023-05-29T11:54:36;4.40;3.20;2.00
12246;PMS7003;6186;52.022;4.692;2023-05-29T11:57:01;5.50;4.00;2.00
12246;PMS7003;6186;52.022;4.692;2023-05-29T11:59:28;4.40;4.00;2.00
12246;PMS7003;6186;52.022;4.692;2023-05-29T12:01:54;6.00;4.00;1.60
12246;PMS7003;6186;52.022;4.692;2023-05-29T12:04:19;4.00;4.00;2.00
12246;PMS7003;6186;52.022;4.692;2023-05-29T12:06:44;6.00;4.75;2.00
12246;PMS7003;6186;52.022;4.692;2023-05-29T12:09:22;4.00;3.00;1.00
12246;PMS7003;6186;52.022;4.692;2023-05-29T12:11:50;3.40;3.40;1.20
12246;PMS7003;6186;52.022;4.692;2023-05-29T12:14:15;3.80;3.40;2.00
12246;PMS7003;6186;52.022;4.692;2023-05-29T12:16:41;3.75;3.75;1.25
12246;PMS7003;6186;52.022;4.692;2023-05-29T12:19:06;4.50;4.25;2.00
12246;PMS7003;6186;52.022;4.692;2023-05-29T12:21:31;4.00;3.00;1.00
12246;PMS7003;6186;52.022;4.692;2023-05-29T12:23:57;4.00;3.00;1.00
12246;PMS7003;6186;52.022;4.692;2023-05-29T12:26:23;5.40;5.00;2.00
12246;PMS7003;6186;52.022;4.692;2023-05-29T12:28:49;5.00;4.80;2.00
12246;PMS7003;6186;52.022;4.692;2023-05-29T12:31:26;5.00;5.00;2.00
12246;PMS7003;6186;52.022;4.692;2023-05-29T12:33:57;5.80;4.20;2.00
12246;PMS7003;6186;52.022;4.692;2023-05-29T12:36:25;3.20;3.00;1.00
12246;PMS7003;6186;52.022;4.692;2023-05-29T12:38:51;4.80;4.00;1.40
12246;PMS7003;6186;52.022;4.692;2023-05-29T12:41:24;4.20;4.00;1.00
12246;PMS7003;6186;52.022;4.692;2023-05-29T12:43:52;3.80;3.20;1.00
12246;PMS7003;6186;52.022;4.692;2023-05-29T12:46:17;4.00;4.00;1.80
12246;PMS7003;6186;52.022;4.692;2023-05-29T12:48:43;3.00;3.00;1.00
12246;PMS7003;6186;52.022;4.692;2023-05-29T12:51:08;5.00;4.00;2.00
12246;PMS7003;6186;52.022;4.692;2023-05-29T12:53:33;5.00;3.75;1.00
12246;PMS7003;6186;52.022;4.692;2023-05-29T12:55:58;4.75;4.00;1.00
12246;PMS7003;6186;52.022;4.692;2023-05-29T12:58:24;5.50;3.25;1.00
12246;PMS7003;6186;52.022;4.692;2023-05-29T13:00:52;4.25;3.75;1.75
12246;PMS7003;6186;52.022;4.692;2023-05-29T13:03:18;4.00;3.40;1.00
12246;PMS7003;6186;52.022;4.692;2023-05-29T13:05:43;3.00;3.00;1.00
12246;PMS7003;6186;52.022;4.692;2023-05-29T13:08:08;4.00;3.00;1.00
12246;PMS7003;6186;52.022;4.692;2023-05-29T13:10:34;3.25;3.00;1.00
12246;PMS7003;6186;52.022;4.692;2023-05-29T13:12:59;3.00;3.00;1.00
12246;PMS7003;6186;52.022;4.692;2023-05-29T13:15:25;2.75;2.75;1.00
12246;PMS7003;6186;52.022;4.692;2023-05-29T13:17:51;3.80;3.00;1.00
12246;PMS7003;6186;52.022;4.692;2023-05-29T13:20:17;3.00;2.80;1.00
12246;PMS7003;6186;52.022;4.692;2023-05-29T13:22:43;4.00;3.20;2.00
12246;PMS7003;6186;52.022;4.692;2023-05-29T13:25:11;4.00;4.00;1.40
12246;PMS7003;6186;52.022;4.692;2023-05-29T13:27:38;4.00;3.00;1.00
12246;PMS7003;6186;52.022;4.692;2023-05-29T13:30:05;3.60;3.20;1.00
12246;PMS7003;6186;52.022;4.692;2023-05-29T13:32:31;4.20;4.00;2.00
12246;PMS7003;6186;52.022;4.692;2023-05-29T13:34:57;4.25;3.75;1.00
12246;PMS7003;6186;52.022;4.692;2023-05-29T13:37:22;3.00;3.00;1.00
12246;PMS7003;6186;52.022;4.692;2023-05-29T13:39:48;4.00;3.50;1.00
12246;PMS7003;6186;52.022;4.692;2023-05-29T13:42:13;3.00;3.00;1.00
12246;PMS7003;6186;52.022;4.692;2023-05-29T13:44:39;2.50;2.50;1.00
12246;PMS7003;6186;52.022;4.692;2023-05-29T13:47:07;4.00;4.00;1.00
12246;PMS7003;6186;52.022;4.692;2023-05-29T13:49:32;4.00;3.00;1.00
12246;PMS7003;6186;52.022;4.692;2023-05-29T13:51:58;3.00;2.20;1.00
12246;PMS7003;6186;52.022;4.692;2023-05-29T13:54:23;3.00;2.00;0.50
12246;PMS7003;6186;52.022;4.692;2023-05-29T13:56:48;4.50;3.00;1.25
12246;PMS7003;6186;52.022;4.692;2023-05-29T13:59:14;6.00;4.00;1.75
12246;PMS7003;6186;52.022;4.692;2023-05-29T14:01:39;4.00;4.00;1.00
12246;PMS7003;6186;52.022;4.692;2023-05-29T14:04:04;3.00;3.00;1.00
12246;PMS7003;6186;52.022;4.692;2023-05-29T14:06:29;4.25;4.25;1.00
12246;PMS7003;6186;52.022;4.692;2023-05-29T14:08:55;4.00;3.00;1.00
12246;PMS7003;6186;52.022;4.692;2023-05-29T14:11:20;4.00;3.50;1.00
12246;PMS7003;6186;52.022;4.692;2023-05-29T14:13:45;5.00;3.00;1.00
12246;PMS7003;6186;52.022;4.692;2023-05-29T14:16:10;4.50;4.50;1.25
12246;PMS7003;6186;52.022;4.692;2023-05-29T14:18:36;4.00;3.00;1.00
12246;PMS7003;6186;52.022;4.692;2023-05-29T14:21:01;5.50;5.00;1.75
12246;PMS7003;6186;52.022;4.692;2023-05-29T14:23:26;3.00;3.00;2.00
12246;PMS7003;6186;52.022;4.692;2023-05-29T14:25:52;5.00;3.00;1.00
12246;PMS7003;6186;52.022;4.692;2023-05-29T14:28:17;3.75;3.00;1.00
12246;PMS7003;6186;52.022;4.692;2023-05-29T14:30:42;4.50;3.25;1.00
12246;PMS7003;6186;52.022;4.692;2023-05-29T14:33:08;4.25;3.00;1.00
12246;PMS7003;6186;52.022;4.692;2023-05-29T14:35:33;4.25;4.25;2.00
12246;PMS7003;6186;52.022;4.692;2023-05-29T14:37:58;3.25;3.00;1.00
12246;PMS7003;6186;52.022;4.692;2023-05-29T14:40:24;4.00;4.00;1.00
12246;PMS7003;6186;52.022;4.692;2023-05-29T14:42:49;4.25;3.00;1.00
12246;PMS7003;6186;52.022;4.692;2023-05-29T14:45:14;3.00;3.00;1.00
12246;PMS7003;6186;52.022;4.692;2023-05-29T14:47:40;4.60;3.40;1.80
12246;PMS7003;6186;52.022;4.692;2023-05-29T14:50:06;3.00;3.00;1.00